createdAt,value
2023-10-08T00:00:02.048Z,11.04
2023-10-08T00:02:31.933Z,11.04
2023-10-08T00:05:00.934Z,11.05
2023-10-08T00:07:29.026Z,11.04
2023-10-08T00:09:56.902Z,11.06
2023-10-08T00:12:24.978Z,11.08
2023-10-08T00:14:54.597Z,11.11
2023-10-08T00:17:22.604Z,11.15
2023-10-08T00:19:52.305Z,11.20
2023-10-08T00:22:21.323Z,11.18
2023-10-08T00:24:51.036Z,11.21
2023-10-08T00:27:19.038Z,11.23
2023-10-08T00:29:48.318Z,11.25
2023-10-08T00:32:17.683Z,11.30
2023-10-08T00:34:45.512Z,11.32
2023-10-08T00:37:17.415Z,11.35
2023-10-08T00:39:46.570Z,11.38
2023-10-08T00:42:14.519Z,11.40
2023-10-08T00:44:44.426Z,11.42
2023-10-08T00:47:12.924Z,11.43
2023-10-08T00:49:43.632Z,11.44
2023-10-08T00:52:14.010Z,11.47
2023-10-08T00:54:55.800Z,11.50
2023-10-08T00:57:27.355Z,11.53
2023-10-08T00:59:56.491Z,11.56
2023-10-08T01:02:28.910Z,11.59
2023-10-08T01:04:57.259Z,11.61
2023-10-08T01:07:26.390Z,11.63
2023-10-08T01:09:56.188Z,11.63
2023-10-08T01:12:26.641Z,11.65
2023-10-08T01:14:55.450Z,11.66
2023-10-08T01:17:27.134Z,11.70
2023-10-08T01:19:56.932Z,11.73
2023-10-08T01:22:26.837Z,11.76
2023-10-08T01:24:54.894Z,11.80
2023-10-08T01:27:24.578Z,11.81
2023-10-08T01:29:53.439Z,11.82
2023-10-08T01:32:24.395Z,11.85
2023-10-08T01:34:52.234Z,11.87
2023-10-08T01:37:21.995Z,11.89
2023-10-08T01:39:50.935Z,11.90
2023-10-08T01:42:19.000Z,11.92
2023-10-08T01:44:51.253Z,11.95
2023-10-08T01:47:19.937Z,11.98
2023-10-08T01:49:48.259Z,12.01
2023-10-08T01:52:21.375Z,12.03
2023-10-08T01:54:50.521Z,12.07
2023-10-08T01:57:18.600Z,12.05
2023-10-08T01:59:46.637Z,12.06
2023-10-08T02:02:16.048Z,12.08
2023-10-08T02:04:44.440Z,12.11
2023-10-08T02:07:15.161Z,12.12
2023-10-08T02:09:42.895Z,12.14
2023-10-08T02:12:10.831Z,12.18
2023-10-08T02:14:41.898Z,12.21
2023-10-08T02:17:10.670Z,12.21
2023-10-08T02:19:38.313Z,12.24
2023-10-08T02:22:08.249Z,12.25
2023-10-08T02:24:38.068Z,12.27
2023-10-08T02:27:07.280Z,12.28
2023-10-08T02:29:35.806Z,12.30
2023-10-08T02:32:05.265Z,12.31
2023-10-08T02:34:33.567Z,12.33
2023-10-08T02:37:03.843Z,12.37
2023-10-08T02:39:32.512Z,12.38
2023-10-08T02:42:00.669Z,12.40
2023-10-08T02:44:28.833Z,12.44
2023-10-08T02:46:57.533Z,12.46
2023-10-08T02:49:25.450Z,12.50
2023-10-08T02:51:55.295Z,12.50
2023-10-08T02:54:25.788Z,12.51
2023-10-08T02:56:58.437Z,12.52
2023-10-08T02:59:41.592Z,12.52
2023-10-08T03:02:22.082Z,12.53
2023-10-08T03:04:53.181Z,12.52
2023-10-08T03:07:26.547Z,12.50
2023-10-08T03:10:13.037Z,12.48
2023-10-08T03:12:40.879Z,12.46
2023-10-08T03:15:16.316Z,12.46
2023-10-08T03:17:50.136Z,12.45
2023-10-08T03:20:37.693Z,12.45
2023-10-08T03:23:08.567Z,12.44
2023-10-08T03:25:38.302Z,12.44
2023-10-08T03:28:08.974Z,12.42
2023-10-08T03:30:41.982Z,12.43
2023-10-08T03:33:11.448Z,12.44
2023-10-08T03:35:41.014Z,12.46
2023-10-08T03:38:27.419Z,12.48
2023-10-08T03:41:00.923Z,12.50
2023-10-08T03:43:35.255Z,12.51
2023-10-08T03:46:06.487Z,12.52
2023-10-08T03:48:37.687Z,12.53
2023-10-08T03:51:10.610Z,12.54
2023-10-08T03:53:46.417Z,12.56
2023-10-08T03:56:15.026Z,12.55
2023-10-08T03:58:44.743Z,12.54
2023-10-08T04:01:14.671Z,12.55
2023-10-08T04:03:51.208Z,12.57
2023-10-08T04:06:26.293Z,12.60
2023-10-08T04:08:55.974Z,12.60
2023-10-08T04:11:25.653Z,12.61
2023-10-08T04:13:53.791Z,12.58
2023-10-08T04:16:21.935Z,12.59
2023-10-08T04:18:51.163Z,12.56
2023-10-08T04:21:21.392Z,12.54
2023-10-08T04:23:52.720Z,12.53
2023-10-08T04:26:26.964Z,12.51
2023-10-08T04:29:02.080Z,12.49
2023-10-08T04:31:37.892Z,12.46
2023-10-08T04:34:14.847Z,12.46
2023-10-08T04:36:46.178Z,12.45
2023-10-08T04:39:18.976Z,12.45
2023-10-08T04:41:48.761Z,12.44
2023-10-08T04:44:17.099Z,12.44
2023-10-08T04:46:46.066Z,12.44
2023-10-08T04:49:20.214Z,12.44
2023-10-08T04:51:49.656Z,12.44
2023-10-08T04:54:17.704Z,12.44
2023-10-08T04:56:45.795Z,12.44
2023-10-08T04:59:13.905Z,12.45
2023-10-08T05:01:48.620Z,12.46
2023-10-08T05:04:28.760Z,12.49
2023-10-08T05:07:04.887Z,12.50
2023-10-08T05:09:50.132Z,12.52
2023-10-08T05:12:19.796Z,12.53
2023-10-08T05:14:49.557Z,12.54
2023-10-08T05:17:17.425Z,12.56
2023-10-08T05:19:59.075Z,12.58
2023-10-08T05:22:31.652Z,12.61
2023-10-08T05:25:13.851Z,12.64
2023-10-08T05:27:48.755Z,12.68
2023-10-08T05:30:29.562Z,12.70
2023-10-08T05:33:07.326Z,12.71
2023-10-08T05:35:43.313Z,12.72
2023-10-08T05:38:25.912Z,12.75
2023-10-08T05:40:57.349Z,12.77
2023-10-08T05:43:42.786Z,12.79
2023-10-08T05:46:23.605Z,12.81
2023-10-08T05:49:06.416Z,12.84
2023-10-08T05:51:47.623Z,12.84
2023-10-08T05:54:34.323Z,12.85
2023-10-08T05:57:15.464Z,12.86
2023-10-08T05:59:57.635Z,12.87
2023-10-08T06:02:35.256Z,12.87
2023-10-08T06:05:11.680Z,12.87
2023-10-08T06:07:56.966Z,12.87
2023-10-08T06:10:31.360Z,12.89
2023-10-08T06:13:04.903Z,12.90
2023-10-08T06:15:50.310Z,12.89
2023-10-08T06:18:29.733Z,12.92
2023-10-08T06:21:09.374Z,12.91
2023-10-08T06:23:42.651Z,12.92
2023-10-08T06:26:10.421Z,12.94
2023-10-08T06:28:39.812Z,12.95
2023-10-08T06:31:09.677Z,12.97
2023-10-08T06:33:37.919Z,12.97
2023-10-08T06:36:12.049Z,12.97
2023-10-08T06:38:45.220Z,12.93
2023-10-08T06:41:14.186Z,12.93
2023-10-08T06:43:45.320Z,12.94
2023-10-08T06:46:13.110Z,12.93
2023-10-08T06:48:46.412Z,12.93
2023-10-08T06:51:14.686Z,12.94
2023-10-08T06:53:46.818Z,12.94
2023-10-08T06:56:16.264Z,12.96
2023-10-08T06:58:46.249Z,12.99
2023-10-08T07:01:14.246Z,13.02
2023-10-08T07:03:42.360Z,13.05
2023-10-08T07:06:20.554Z,13.07
2023-10-08T07:08:50.257Z,13.12
2023-10-08T07:11:18.693Z,13.16
2023-10-08T07:13:46.601Z,13.20
2023-10-08T07:16:18.252Z,13.25
2023-10-08T07:18:48.677Z,13.28
2023-10-08T07:21:18.515Z,13.33
2023-10-08T07:24:00.389Z,13.38
2023-10-08T07:26:38.635Z,13.43
2023-10-08T07:29:09.981Z,13.46
2023-10-08T07:31:46.630Z,13.51
2023-10-08T07:34:21.353Z,13.58
2023-10-08T07:36:53.051Z,13.64
2023-10-08T07:39:31.809Z,13.72
2023-10-08T07:42:05.966Z,13.80
2023-10-08T07:44:37.495Z,13.88
2023-10-08T07:47:09.206Z,13.92
2023-10-08T07:49:39.046Z,13.98
2023-10-08T07:52:13.001Z,14.02
2023-10-08T07:54:41.400Z,14.08
2023-10-08T07:57:18.826Z,14.12
2023-10-08T07:59:53.241Z,14.15
2023-10-08T08:02:23.692Z,14.23
2023-10-08T08:04:53.981Z,14.27
2023-10-08T08:07:22.774Z,14.32
2023-10-08T08:09:55.183Z,14.38
2023-10-08T08:12:28.152Z,14.44
2023-10-08T08:15:00.277Z,14.52
2023-10-08T08:17:30.368Z,14.67
2023-10-08T08:19:59.036Z,14.92
2023-10-08T08:22:31.851Z,15.26
2023-10-08T08:25:03.279Z,15.54
2023-10-08T08:27:33.946Z,15.75
2023-10-08T08:30:14.404Z,15.99
2023-10-08T08:32:44.129Z,16.31
2023-10-08T08:35:15.123Z,16.50
2023-10-08T08:37:43.602Z,16.67
2023-10-08T08:40:14.052Z,16.78
2023-10-08T08:42:42.422Z,16.85
2023-10-08T08:45:14.700Z,16.87
2023-10-08T08:47:42.773Z,16.96
2023-10-08T08:50:11.272Z,17.18
2023-10-08T08:52:44.221Z,17.41
2023-10-08T08:55:14.249Z,17.46
2023-10-08T08:57:47.986Z,17.41
2023-10-08T09:00:20.422Z,17.47
2023-10-08T09:02:51.780Z,17.60
2023-10-08T09:05:28.243Z,17.79
2023-10-08T09:08:06.798Z,17.97
2023-10-08T09:10:39.144Z,18.15
2023-10-08T09:13:09.984Z,18.32
2023-10-08T09:15:38.519Z,18.41
2023-10-08T09:18:07.247Z,18.45
2023-10-08T09:20:44.822Z,18.45
2023-10-08T09:23:17.806Z,18.46
2023-10-08T09:25:48.995Z,18.45
2023-10-08T09:28:19.430Z,18.35
2023-10-08T09:30:48.888Z,18.24
2023-10-08T09:33:18.565Z,18.17
2023-10-08T09:35:49.808Z,18.11
2023-10-08T09:38:19.406Z,18.03
2023-10-08T09:40:47.482Z,17.96
2023-10-08T09:43:17.278Z,17.89
2023-10-08T09:46:00.016Z,17.83
2023-10-08T09:48:31.668Z,17.77
2023-10-08T09:51:04.148Z,17.73
2023-10-08T09:54:08.152Z,17.69
2023-10-08T09:56:36.692Z,17.61
2023-10-08T09:59:05.121Z,17.56
2023-10-08T10:01:33.703Z,17.51
2023-10-08T10:04:01.761Z,17.47
2023-10-08T10:06:31.648Z,17.47
2023-10-08T10:09:10.877Z,17.45
2023-10-08T10:11:39.136Z,17.44
2023-10-08T10:14:11.077Z,17.42
2023-10-08T10:16:49.813Z,17.40
2023-10-08T10:19:21.120Z,17.38
2023-10-08T10:21:49.960Z,17.37
2023-10-08T10:24:37.892Z,17.36
2023-10-08T10:27:16.756Z,17.35
2023-10-08T10:29:46.083Z,17.35
2023-10-08T10:32:16.034Z,17.35
2023-10-08T10:34:47.792Z,17.36
2023-10-08T10:37:22.287Z,17.31
2023-10-08T10:39:59.434Z,17.29
2023-10-08T10:42:31.936Z,17.26
2023-10-08T10:44:59.564Z,17.26
2023-10-08T10:47:28.217Z,17.25
2023-10-08T10:50:09.746Z,17.24
2023-10-08T10:52:48.282Z,17.22
2023-10-08T10:55:18.758Z,17.17
2023-10-08T10:57:56.720Z,17.14
2023-10-08T11:00:30.776Z,17.11
2023-10-08T11:03:04.209Z,17.08
2023-10-08T11:05:42.076Z,17.07
2023-10-08T11:08:13.120Z,17.07
2023-10-08T11:10:55.138Z,17.02
2023-10-08T11:13:27.604Z,17.01
2023-10-08T11:15:58.027Z,17.00
2023-10-08T11:18:35.721Z,16.98
2023-10-08T11:21:19.657Z,16.94
2023-10-08T11:23:57.272Z,16.90
2023-10-08T11:26:36.041Z,16.89
2023-10-08T11:29:04.640Z,16.89
2023-10-08T11:31:36.920Z,16.87
2023-10-08T11:34:10.948Z,16.86
2023-10-08T11:36:53.745Z,16.83
2023-10-08T11:39:23.389Z,16.81
2023-10-08T11:42:06.594Z,16.79
2023-10-08T11:44:36.528Z,16.77
2023-10-08T11:47:16.683Z,16.74
2023-10-08T11:49:50.985Z,16.71
2023-10-08T11:52:23.040Z,16.70
2023-10-08T11:54:53.518Z,16.72
2023-10-08T11:57:22.504Z,16.72
2023-10-08T11:59:52.607Z,16.70
2023-10-08T12:02:21.391Z,16.71
2023-10-08T12:04:49.727Z,16.69
2023-10-08T12:07:18.048Z,16.69
2023-10-08T12:09:48.988Z,16.68
2023-10-08T12:12:19.215Z,16.66
2023-10-08T12:14:47.906Z,16.61
2023-10-08T12:17:17.530Z,16.54
2023-10-08T12:19:46.002Z,16.48
2023-10-08T12:22:15.620Z,16.40
2023-10-08T12:24:44.860Z,16.23
2023-10-08T12:27:12.505Z,16.08
2023-10-08T12:29:40.178Z,15.96
2023-10-08T12:32:10.831Z,15.87
2023-10-08T12:34:38.542Z,15.73
2023-10-08T12:37:08.175Z,15.56
2023-10-08T12:39:37.798Z,15.38
2023-10-08T12:42:05.733Z,15.16
2023-10-08T12:44:34.561Z,14.97
2023-10-08T12:47:04.625Z,14.82
2023-10-08T12:49:34.338Z,14.66
2023-10-08T12:52:03.180Z,14.53
2023-10-08T12:54:32.981Z,14.44
2023-10-08T12:57:01.127Z,14.35
2023-10-08T12:59:31.061Z,14.23
2023-10-08T13:02:01.761Z,14.11
2023-10-08T13:04:29.588Z,14.06
2023-10-08T13:07:03.004Z,14.04
2023-10-08T13:09:32.232Z,14.02
2023-10-08T13:12:00.263Z,13.99
2023-10-08T13:14:27.869Z,13.95
2023-10-08T13:16:57.004Z,13.90
2023-10-08T13:19:26.768Z,13.88
2023-10-08T13:21:56.371Z,13.84
2023-10-08T13:24:25.916Z,13.82
2023-10-08T13:26:53.792Z,13.80
2023-10-08T13:29:24.885Z,13.73
2023-10-08T13:31:53.592Z,13.68
2023-10-08T13:34:22.183Z,13.67
2023-10-08T13:36:50.097Z,13.61
2023-10-08T13:39:20.562Z,13.57
2023-10-08T13:41:48.742Z,13.54
2023-10-08T13:44:16.506Z,13.51
2023-10-08T13:46:46.275Z,13.48
2023-10-08T13:49:16.373Z,13.46
2023-10-08T13:51:48.104Z,13.41
2023-10-08T13:54:15.907Z,13.39
2023-10-08T13:56:45.981Z,13.34
2023-10-08T13:59:14.441Z,13.32
2023-10-08T14:01:49.749Z,13.30
2023-10-08T14:06:47.350Z,13.28
2023-10-08T14:09:17.262Z,13.28
2023-10-08T14:11:44.717Z,13.27
2023-10-08T14:14:13.735Z,13.26
2023-10-08T14:16:47.240Z,13.24
2023-10-08T14:19:15.787Z,13.20
2023-10-08T14:21:50.806Z,13.16
2023-10-08T14:24:18.598Z,13.12
2023-10-08T14:26:48.460Z,13.10
2023-10-08T14:29:15.942Z,13.06
2023-10-08T14:31:46.586Z,13.01
2023-10-08T14:34:16.714Z,12.99
2023-10-08T14:37:08.126Z,12.93
2023-10-08T14:39:54.723Z,12.88
2023-10-08T14:42:41.318Z,12.85
2023-10-08T14:45:14.220Z,12.84
2023-10-08T14:47:42.144Z,12.85
2023-10-08T14:50:12.046Z,12.82
2023-10-08T14:52:40.759Z,12.80
2023-10-08T14:55:08.828Z,12.78
2023-10-08T14:57:36.526Z,12.77
2023-10-08T15:00:06.520Z,12.73
2023-10-08T15:02:35.394Z,12.70
2023-10-08T15:05:03.447Z,12.68
2023-10-08T15:07:32.523Z,12.63
2023-10-08T15:10:03.989Z,12.61
2023-10-08T15:12:35.492Z,12.59
2023-10-08T15:15:06.240Z,12.57
2023-10-08T15:17:34.878Z,12.55
2023-10-08T15:20:04.402Z,12.55
2023-10-08T15:22:32.120Z,12.50
2023-10-08T15:24:59.849Z,12.46
2023-10-08T15:27:29.366Z,12.42
2023-10-08T15:29:57.553Z,12.40
2023-10-08T15:32:25.971Z,12.38
2023-10-08T15:34:53.860Z,12.37
2023-10-08T15:37:24.748Z,12.39
2023-10-08T15:39:53.309Z,12.37
2023-10-08T15:42:22.801Z,12.33
2023-10-08T15:44:50.956Z,12.31
2023-10-08T15:47:20.908Z,12.22
2023-10-08T15:49:53.273Z,12.12
2023-10-08T15:52:25.656Z,12.04
2023-10-08T15:54:53.635Z,11.92
2023-10-08T15:57:21.365Z,11.79
2023-10-08T15:59:55.245Z,11.67
2023-10-08T16:02:23.888Z,11.57
2023-10-08T16:04:54.840Z,11.44
2023-10-08T16:07:27.059Z,11.35
2023-10-08T16:10:03.170Z,11.27
2023-10-08T16:12:31.044Z,11.18
2023-10-08T16:14:59.013Z,11.10
2023-10-08T16:17:31.067Z,10.98
2023-10-08T16:19:59.146Z,10.88
2023-10-08T16:22:29.422Z,10.80
2023-10-08T16:25:01.806Z,10.71
2023-10-08T16:27:29.739Z,10.63
2023-10-08T16:29:58.006Z,10.54
2023-10-08T16:32:26.572Z,10.46
2023-10-08T16:34:54.223Z,10.39
2023-10-08T16:37:22.696Z,10.35
2023-10-08T16:39:52.386Z,10.27
2023-10-08T16:42:23.009Z,10.20
2023-10-08T16:44:52.165Z,10.17
2023-10-08T16:47:20.836Z,10.12
2023-10-08T16:49:51.652Z,10.04
2023-10-08T16:52:20.604Z,10.00
2023-10-08T16:54:48.386Z,9.96
2023-10-08T16:57:16.899Z,9.90
2023-10-08T16:59:47.547Z,9.87
2023-10-08T17:02:17.313Z,9.82
2023-10-08T17:04:49.451Z,9.80
2023-10-08T17:07:17.084Z,9.76
2023-10-08T17:09:45.244Z,9.73
2023-10-08T17:12:15.000Z,9.72
2023-10-08T17:14:43.293Z,9.68
2023-10-08T17:17:12.905Z,9.65
2023-10-08T17:19:42.474Z,9.59
2023-10-08T17:22:10.814Z,9.55
2023-10-08T17:24:40.507Z,9.51
2023-10-08T17:27:14.799Z,9.46
2023-10-08T17:29:38.641Z,9.41
2023-10-08T17:32:09.802Z,9.35
2023-10-08T17:34:38.040Z,9.28
2023-10-08T17:37:06.656Z,9.23
2023-10-08T17:39:34.560Z,9.17
2023-10-08T17:42:02.645Z,9.11
2023-10-08T17:44:30.955Z,9.05
2023-10-08T17:47:01.945Z,9.00
2023-10-08T17:49:32.249Z,8.96
2023-10-08T17:52:01.260Z,8.91
2023-10-08T17:54:30.627Z,8.88
2023-10-08T17:56:58.537Z,8.83
2023-10-08T17:59:28.809Z,8.80
2023-10-08T18:01:56.955Z,8.76
2023-10-08T18:04:26.243Z,8.73
2023-10-08T18:06:55.018Z,8.69
2023-10-08T18:09:25.986Z,8.66
2023-10-08T18:11:55.934Z,8.64
2023-10-08T18:14:28.646Z,8.63
2023-10-08T18:16:57.089Z,8.63
2023-10-08T18:19:27.743Z,8.63
2023-10-08T18:21:55.830Z,8.61
2023-10-08T18:24:28.982Z,8.59
2023-10-08T18:26:59.853Z,8.56
2023-10-08T18:29:28.940Z,8.52
2023-10-08T18:31:58.715Z,8.49
2023-10-08T18:34:28.312Z,8.46
2023-10-08T18:37:01.482Z,8.42
2023-10-08T18:39:30.259Z,8.39
2023-10-08T18:42:00.106Z,8.35
2023-10-08T18:44:28.305Z,8.32
2023-10-08T18:47:01.750Z,8.27
2023-10-08T18:49:30.045Z,8.24
2023-10-08T18:51:59.683Z,8.21
2023-10-08T18:54:29.320Z,8.19
2023-10-08T18:57:00.425Z,8.17
2023-10-08T18:59:28.477Z,8.15
2023-10-08T19:01:56.391Z,8.09
2023-10-08T19:04:29.552Z,8.04
2023-10-08T19:06:57.601Z,7.99
2023-10-08T19:09:27.381Z,7.95
2023-10-08T19:11:57.350Z,7.87
2023-10-08T19:14:24.838Z,7.81
2023-10-08T19:16:53.688Z,7.75
2023-10-08T19:19:22.683Z,7.69
2023-10-08T19:21:51.302Z,7.62
2023-10-08T19:24:19.228Z,7.58
2023-10-08T19:26:51.849Z,7.55
2023-10-08T19:29:20.802Z,7.51
2023-10-08T19:31:49.518Z,7.46
2023-10-08T19:34:17.646Z,7.43
2023-10-08T19:36:45.687Z,7.39
2023-10-08T19:39:14.148Z,7.36
2023-10-08T19:41:42.514Z,7.34
2023-10-08T19:44:11.005Z,7.33
2023-10-08T19:46:39.121Z,7.30
2023-10-08T19:49:07.013Z,7.28
2023-10-08T19:51:35.181Z,7.27
2023-10-08T19:54:04.340Z,7.25
2023-10-08T19:56:33.014Z,7.24
2023-10-08T19:59:02.799Z,7.21
2023-10-08T20:01:31.339Z,7.18
2023-10-08T20:03:59.481Z,7.13
2023-10-08T20:06:27.638Z,7.10
2023-10-08T20:08:55.614Z,7.06
2023-10-08T20:11:24.482Z,7.04
2023-10-08T20:13:53.542Z,7.03
2023-10-08T20:16:21.611Z,7.02
2023-10-08T20:18:49.885Z,7.03
2023-10-08T20:21:21.080Z,7.04
2023-10-08T20:23:51.047Z,7.05
2023-10-08T20:26:21.742Z,7.04
2023-10-08T20:28:52.563Z,7.03
2023-10-08T20:31:21.813Z,7.02
2023-10-08T20:33:49.575Z,7.00
2023-10-08T20:36:20.423Z,6.98
2023-10-08T20:38:50.132Z,6.94
2023-10-08T20:41:20.938Z,6.93
2023-10-08T20:43:49.203Z,6.91
2023-10-08T20:46:18.879Z,6.86
2023-10-08T20:48:48.216Z,6.84
2023-10-08T20:51:17.708Z,6.78
2023-10-08T20:53:46.254Z,6.73
2023-10-08T20:56:13.991Z,6.68
2023-10-08T20:58:43.047Z,6.63
2023-10-08T21:01:11.339Z,6.59
2023-10-08T21:03:39.375Z,6.53
2023-10-08T21:06:07.385Z,6.48
2023-10-08T21:08:35.985Z,6.42
2023-10-08T21:11:03.791Z,6.38
2023-10-08T21:13:31.660Z,6.32
2023-10-08T21:16:02.227Z,6.28
2023-10-08T21:18:31.703Z,6.22
2023-10-08T21:21:03.685Z,6.16
2023-10-08T21:23:31.602Z,6.07
2023-10-08T21:25:59.209Z,6.01
2023-10-08T21:28:27.008Z,5.95
2023-10-08T21:30:55.309Z,5.92
2023-10-08T21:33:23.820Z,5.93
2023-10-08T21:35:52.853Z,5.91
2023-10-08T21:38:23.832Z,5.87
2023-10-08T21:41:00.231Z,5.85
2023-10-08T21:43:28.229Z,5.85
2023-10-08T21:45:56.066Z,5.80
2023-10-08T21:48:24.107Z,5.75
2023-10-08T21:50:53.837Z,5.70
2023-10-08T21:53:21.659Z,5.66
2023-10-08T21:55:49.301Z,5.63
2023-10-08T21:58:18.909Z,5.60
2023-10-08T22:00:47.148Z,5.59
2023-10-08T22:03:15.636Z,5.54
2023-10-08T22:05:46.695Z,5.47
2023-10-08T22:08:16.049Z,5.36
2023-10-08T22:10:44.518Z,5.20
2023-10-08T22:13:13.339Z,5.08
2023-10-08T22:15:55.457Z,5.04
2023-10-08T22:18:27.733Z,4.95
2023-10-08T22:20:55.960Z,4.93
2023-10-08T22:23:25.461Z,4.88
2023-10-08T22:25:55.680Z,4.86
2023-10-08T22:28:25.313Z,4.83
2023-10-08T22:30:58.820Z,4.80
2023-10-08T22:33:34.244Z,4.76
2023-10-08T22:36:08.183Z,4.70
2023-10-08T22:38:35.985Z,4.69
2023-10-08T22:41:03.767Z,4.66
2023-10-08T22:43:37.261Z,4.60
2023-10-08T22:46:08.881Z,4.52
2023-10-08T22:48:45.991Z,4.48
2023-10-08T22:51:26.158Z,4.41
2023-10-08T22:53:58.025Z,4.35
2023-10-08T22:56:26.533Z,4.34
2023-10-08T22:58:57.828Z,4.33
2023-10-08T23:01:27.661Z,4.33
2023-10-08T23:03:56.811Z,4.34
2023-10-08T23:06:24.807Z,4.37
2023-10-08T23:08:54.910Z,4.37
2023-10-08T23:11:22.902Z,4.34
2023-10-08T23:13:51.732Z,4.32
2023-10-08T23:16:23.571Z,4.33
2023-10-08T23:18:51.727Z,4.33
2023-10-08T23:21:21.222Z,4.30
2023-10-08T23:23:49.190Z,4.32
2023-10-08T23:26:18.207Z,4.33
2023-10-08T23:28:46.969Z,4.35
2023-10-08T23:31:15.573Z,4.35
2023-10-08T23:33:45.467Z,4.34
2023-10-08T23:36:17.255Z,4.30
2023-10-08T23:38:47.554Z,4.19
2023-10-08T23:41:23.103Z,4.13
2023-10-08T23:43:56.955Z,4.12
2023-10-08T23:46:33.944Z,4.13
2023-10-08T23:49:08.735Z,4.12
2023-10-08T23:51:41.907Z,4.14
2023-10-08T23:54:14.701Z,4.16
2023-10-08T23:56:45.868Z,4.12
2023-10-08T23:59:18.737Z,4.05
